Main page
METAR-TAF:

METAR-TAF

Airports :

Meiringen Air Base

Meiringen, Switzerland

latitude: 46-44-25N, longitude: 8-06-36E, elevation: 577 m

Current weather observation

The report was made 19 minutes ago, at 09:20 UTC
Wind 6 kt from the West, varying between Southwest and Northwest
Temperature 12°C
Humidity 82%
Pressure 1005 hPa
Visibility 10 km or more
Few clouds at a height of 1200 ft
Scattered clouds at a height of 2300 ft
Overcast at a height of 2700 ft

METAR: LSMM 190920Z AUTO 26006KT 230V320 9999NDV FEW012 SCT023 OVC027 12/09 Q1005 RMK

Time: 11:39 (09:39 UTC)


TAF: missing

Weather observations and forecasts of more than 4000 airports (METAR and TAF reports).

The available stations are represented by yellow and red dots on the map.

Hover mouse over dot to see the name of the station.

Then click to see weather observations and forecasts.

To change the map : click on the green buttons with a black cross to zoom in, on the green button with a dash to zoom out, or on the green arrows for adjacent maps.


METAR-TAF: